sensor_id;sensor_type;location;lat;lon;timestamp;pressure;altitude;pressure_sealevel;temperature;humidity
53758;BME280;39674;59.860;30.672;2023-02-18T01:32:30;99635.31;;;-3.99;97.51
53758;BME280;39674;59.860;30.672;2023-02-18T02:15:29;99561.38;;;-4.00;95.71
53758;BME280;39674;59.860;30.672;2023-02-18T05:22:23;99323.47;;;-4.18;94.29
53758;BME280;39674;59.860;30.672;2023-02-18T05:35:51;99305.41;;;-4.16;94.71
53758;BME280;39674;59.860;30.672;2023-02-18T05:51:36;99287.38;;;-4.18;94.74
53758;BME280;39674;59.860;30.672;2023-02-18T06:07:52;99251.22;;;-4.15;94.84
53758;BME280;39674;59.860;30.672;2023-02-18T06:10:21;99260.63;;;-4.12;94.56
53758;BME280;39674;59.860;30.672;2023-02-18T06:12:51;99255.38;;;-4.06;94.62
53758;BME280;39674;59.860;30.672;2023-02-18T06:15:19;99252.84;;;-4.08;94.88
53758;BME280;39674;59.860;30.672;2023-02-18T06:17:50;99244.25;;;-4.10;94.51
53758;BME280;39674;59.860;30.672;2023-02-18T06:20:19;99245.84;;;-4.01;95.00
53758;BME280;39674;59.860;30.672;2023-02-18T06:22:48;99248.41;;;-3.99;94.78
53758;BME280;39674;59.860;30.672;2023-02-18T06:25:20;99243.22;;;-3.98;94.52
53758;BME280;39674;59.860;30.672;2023-02-18T06:27:51;99244.97;;;-3.98;94.67
53758;BME280;39674;59.860;30.672;2023-02-18T06:30:24;99245.78;;;-3.96;95.12
53758;BME280;39674;59.860;30.672;2023-02-18T06:32:58;99249.09;;;-3.88;95.11
53758;BME280;39674;59.860;30.672;2023-02-18T06:35:30;99238.91;;;-3.97;94.67
53758;BME280;39674;59.860;30.672;2023-02-18T06:38:46;99232.94;;;-4.01;94.85
53758;BME280;39674;59.860;30.672;2023-02-18T06:41:17;99228.59;;;-3.97;95.09
53758;BME280;39674;59.860;30.672;2023-02-18T06:43:45;99235.41;;;-3.93;94.80
53758;BME280;39674;59.860;30.672;2023-02-18T06:46:18;99231.13;;;-3.94;95.04
53758;BME280;39674;59.860;30.672;2023-02-18T06:48:49;99224.22;;;-3.94;94.87
53758;BME280;39674;59.860;30.672;2023-02-18T06:51:20;99223.44;;;-3.97;95.03
53758;BME280;39674;59.860;30.672;2023-02-18T06:53:49;99209.72;;;-3.99;94.75
53758;BME280;39674;59.860;30.672;2023-02-18T06:56:23;99213.00;;;-3.91;94.70
53758;BME280;39674;59.860;30.672;2023-02-18T06:58:56;99218.22;;;-3.94;94.15
53758;BME280;39674;59.860;30.672;2023-02-18T07:01:29;99214.69;;;-3.87;94.88
53758;BME280;39674;59.860;30.672;2023-02-18T07:03:59;99203.38;;;-3.80;94.75
53758;BME280;39674;59.860;30.672;2023-02-18T07:06:28;99207.78;;;-3.85;94.30
53758;BME280;39674;59.860;30.672;2023-02-18T07:08:57;99197.38;;;-3.82;94.62
53758;BME280;39674;59.860;30.672;2023-02-18T07:11:30;99209.44;;;-3.84;94.62
53758;BME280;39674;59.860;30.672;2023-02-18T07:13:58;99200.84;;;-3.83;94.26
53758;BME280;39674;59.860;30.672;2023-02-18T07:16:26;99193.97;;;-3.84;94.20
53758;BME280;39674;59.860;30.672;2023-02-18T07:18:55;99207.66;;;-3.79;94.74
53758;BME280;39674;59.860;30.672;2023-02-18T07:21:24;99200.81;;;-3.80;94.50
53758;BME280;39674;59.860;30.672;2023-02-18T07:23:52;99195.56;;;-3.77;93.77
53758;BME280;39674;59.860;30.672;2023-02-18T07:26:20;99193.84;;;-3.75;94.26
53758;BME280;39674;59.860;30.672;2023-02-18T07:28:50;99204.22;;;-3.79;94.25
53758;BME280;39674;59.860;30.672;2023-02-18T07:31:20;99196.34;;;-3.72;94.42
53758;BME280;39674;59.860;30.672;2023-02-18T07:33:48;99199.00;;;-3.75;94.58
53758;BME280;39674;59.860;30.672;2023-02-18T07:36:18;99195.38;;;-3.66;94.78
53758;BME280;39674;59.860;30.672;2023-02-18T07:38:46;99197.94;;;-3.64;94.44
53758;BME280;39674;59.860;30.672;2023-02-18T07:41:18;99199.78;;;-3.71;94.56
53758;BME280;39674;59.860;30.672;2023-02-18T07:43:49;99185.19;;;-3.72;94.42
53758;BME280;39674;59.860;30.672;2023-02-18T07:46:21;99186.84;;;-3.69;94.89
53758;BME280;39674;59.860;30.672;2023-02-18T07:48:52;99188.56;;;-3.68;94.67
53758;BME280;39674;59.860;30.672;2023-02-18T07:51:25;99186.03;;;-3.72;95.17
53758;BME280;39674;59.860;30.672;2023-02-18T07:53:59;99185.09;;;-3.67;94.90
53758;BME280;39674;59.860;30.672;2023-02-18T07:56:28;99184.22;;;-3.68;95.24
53758;BME280;39674;59.860;30.672;2023-02-18T07:58:56;99175.63;;;-3.65;95.22
53758;BME280;39674;59.860;30.672;2023-02-18T08:01:26;99182.41;;;-3.61;95.34
53758;BME280;39674;59.860;30.672;2023-02-18T08:03:55;99185.00;;;-3.61;95.20
53758;BME280;39674;59.860;30.672;2023-02-18T08:06:32;99178.13;;;-3.62;95.06
53758;BME280;39674;59.860;30.672;2023-02-18T08:09:05;99179.59;;;-3.49;94.86
53758;BME280;39674;59.860;30.672;2023-02-18T08:11:34;99183.13;;;-3.53;94.73
53758;BME280;39674;59.860;30.672;2023-02-18T08:14:06;99165.75;;;-3.43;94.67
53758;BME280;39674;59.860;30.672;2023-02-18T08:16:36;99170.09;;;-3.47;94.47
53758;BME280;39674;59.860;30.672;2023-02-18T08:19:05;99167.66;;;-3.53;94.55
53758;BME280;39674;59.860;30.672;2023-02-18T08:21:38;99172.72;;;-3.50;94.75
53758;BME280;39674;59.860;30.672;2023-02-18T08:24:18;99167.53;;;-3.47;94.92
53758;BME280;39674;59.860;30.672;2023-02-18T08:26:47;99174.44;;;-3.49;94.80
53758;BME280;39674;59.860;30.672;2023-02-18T08:29:16;99165.75;;;-3.45;94.86
53758;BME280;39674;59.860;30.672;2023-02-18T08:31:47;99172.50;;;-3.38;94.83
53758;BME280;39674;59.860;30.672;2023-02-18T08:34:17;99160.53;;;-3.42;94.65
53758;BME280;39674;59.860;30.672;2023-02-18T08:36:47;99162.16;;;-3.38;94.69
53758;BME280;39674;59.860;30.672;2023-02-18T08:39:16;99163.84;;;-3.35;94.89
53758;BME280;39674;59.860;30.672;2023-02-18T08:41:49;99162.03;;;-3.31;94.10
53758;BME280;39674;59.860;30.672;2023-02-18T08:44:26;99167.16;;;-3.28;94.43
53758;BME280;39674;59.860;30.672;2023-02-18T08:46:57;99158.47;;;-3.24;93.78
53758;BME280;39674;59.860;30.672;2023-02-18T08:49:27;99161.94;;;-3.25;93.50
53758;BME280;39674;59.860;30.672;2023-02-18T08:51:55;99160.00;;;-3.15;93.79
53758;BME280;39674;59.860;30.672;2023-02-18T08:54:24;99165.22;;;-3.17;93.06
53758;BME280;39674;59.860;30.672;2023-02-18T08:56:53;99167.75;;;-3.14;93.28
53758;BME280;39674;59.860;30.672;2023-02-18T08:59:24;99147.88;;;-3.12;93.01
53758;BME280;39674;59.860;30.672;2023-02-18T09:01:56;99153.00;;;-3.09;92.08
53758;BME280;39674;59.860;30.672;2023-02-18T09:04:25;99149.53;;;-3.08;92.22
53758;BME280;39674;59.860;30.672;2023-02-18T09:07:04;99150.19;;;-2.98;92.94
53758;BME280;39674;59.860;30.672;2023-02-18T09:09:44;99145.16;;;-3.04;92.34
53758;BME280;39674;59.860;30.672;2023-02-18T09:12:22;99147.00;;;-3.11;92.26
53758;BME280;39674;59.860;30.672;2023-02-18T09:14:53;99142.72;;;-3.12;92.33
53758;BME280;39674;59.860;30.672;2023-02-18T09:17:26;99139.22;;;-3.09;92.39
53758;BME280;39674;59.860;30.672;2023-02-18T12:38:51;99012.44;;;-2.62;92.10
53758;BME280;39674;59.860;30.672;2023-02-18T14:33:33;98995.59;;;-3.15;95.75
53758;BME280;39674;59.860;30.672;2023-02-18T15:09:51;99001.97;;;-3.30;97.62
53758;BME280;39674;59.860;30.672;2023-02-18T15:12:26;98986.41;;;-3.28;97.65
53758;BME280;39674;59.860;30.672;2023-02-18T15:15:04;98988.97;;;-3.27;97.41
53758;BME280;39674;59.860;30.672;2023-02-18T15:17:33;98993.44;;;-3.33;97.40
53758;BME280;39674;59.860;30.672;2023-02-18T15:20:03;98991.72;;;-3.34;97.45
53758;BME280;39674;59.860;30.672;2023-02-18T15:22:41;98991.59;;;-3.28;97.45
53758;BME280;39674;59.860;30.672;2023-02-18T15:25:15;98986.47;;;-3.31;97.43
53758;BME280;39674;59.860;30.672;2023-02-18T15:27:50;98996.94;;;-3.38;97.81
53758;BME280;39674;59.860;30.672;2023-02-18T15:30:24;98980.63;;;-3.38;98.03
53758;BME280;39674;59.860;30.672;2023-02-18T15:33:01;98995.31;;;-3.42;97.81
53758;BME280;39674;59.860;30.672;2023-02-18T15:35:34;98984.13;;;-3.41;97.77
53758;BME280;39674;59.860;30.672;2023-02-18T15:38:14;98984.06;;;-3.39;97.69
53758;BME280;39674;59.860;30.672;2023-02-18T15:40:55;98978.06;;;-3.40;97.76
53758;BME280;39674;59.860;30.672;2023-02-18T15:43:29;98995.38;;;-3.43;97.61
53758;BME280;39674;59.860;30.672;2023-02-18T15:46:06;98975.50;;;-3.41;97.54
53758;BME280;39674;59.860;30.672;2023-02-18T15:48:44;98981.72;;;-3.50;97.89
53758;BME280;39674;59.860;30.672;2023-02-18T15:51:16;98978.19;;;-3.46;97.89
53758;BME280;39674;59.860;30.672;2023-02-18T15:53:57;98991.09;;;-3.46;97.60
53758;BME280;39674;59.860;30.672;2023-02-18T15:56:39;98993.75;;;-3.49;97.50
53758;BME280;39674;59.860;30.672;2023-02-18T15:59:14;98987.88;;;-3.56;98.38
53758;BME280;39674;59.860;30.672;2023-02-18T16:01:46;98976.66;;;-3.53;98.33
53758;BME280;39674;59.860;30.672;2023-02-18T16:04:23;98988.59;;;-3.49;98.13
53758;BME280;39674;59.860;30.672;2023-02-18T16:06:56;98981.88;;;-3.56;98.19
53758;BME280;39674;59.860;30.672;2023-02-18T16:09:32;98984.38;;;-3.53;98.46
53758;BME280;39674;59.860;30.672;2023-02-18T16:12:02;98974.84;;;-3.51;98.93
53758;BME280;39674;59.860;30.672;2023-02-18T16:14:38;98975.91;;;-3.60;98.24
53758;BME280;39674;59.860;30.672;2023-02-18T16:17:15;98983.59;;;-3.57;98.54
53758;BME280;39674;59.860;30.672;2023-02-18T16:33:09;98976.84;;;-3.62;98.76
53758;BME280;39674;59.860;30.672;2023-02-18T16:36:11;98956.28;;;-3.65;98.80
53758;BME280;39674;59.860;30.672;2023-02-18T17:18:41;98976.22;;;-3.74;95.91
53758;BME280;39674;59.860;30.672;2023-02-18T17:21:20;98979.63;;;-3.73;96.18
53758;BME280;39674;59.860;30.672;2023-02-18T17:43:13;98985.97;;;-3.88;96.21
53758;BME280;39674;59.860;30.672;2023-02-18T17:52:48;98992.09;;;-3.92;95.75
53758;BME280;39674;59.860;30.672;2023-02-18T17:55:18;98997.25;;;-3.94;96.51
53758;BME280;39674;59.860;30.672;2023-02-18T17:58:24;98979.22;;;-3.95;96.63
53758;BME280;39674;59.860;30.672;2023-02-18T18:00:57;98986.09;;;-3.94;97.03
53758;BME280;39674;59.860;30.672;2023-02-18T18:03:28;98989.63;;;-3.98;97.23
53758;BME280;39674;59.860;30.672;2023-02-18T18:06:18;98979.44;;;-4.05;97.43
53758;BME280;39674;59.860;30.672;2023-02-18T18:09:14;98990.75;;;-4.12;98.43
53758;BME280;39674;59.860;30.672;2023-02-18T18:22:05;98998.72;;;-4.24;99.29
53758;BME280;39674;59.860;30.672;2023-02-18T18:24:56;98835.44;;;-5.14;98.85
53758;BME280;39674;59.860;30.672;2023-02-18T18:27:40;98990.88;;;-4.20;98.89
53758;BME280;39674;59.860;30.672;2023-02-18T18:30:33;98982.22;;;-4.17;98.69
53758;BME280;39674;59.860;30.672;2023-02-18T19:11:52;98967.81;;;-4.27;97.48
53758;BME280;39674;59.860;30.672;2023-02-18T19:36:32;98962.81;;;-4.37;97.84
53758;BME280;39674;59.860;30.672;2023-02-18T19:40:25;98945.69;;;-4.38;98.46
53758;BME280;39674;59.860;30.672;2023-02-18T19:49:08;98952.50;;;-4.37;97.89
53758;BME280;39674;59.860;30.672;2023-02-18T19:51:17;98938.75;;;-4.36;97.93
53758;BME280;39674;59.860;30.672;2023-02-18T19:54:34;98942.28;;;-4.40;97.49
53758;BME280;39674;59.860;30.672;2023-02-18T19:57:48;98940.69;;;-4.47;97.52
53758;BME280;39674;59.860;30.672;2023-02-18T20:03:39;98940.53;;;-4.38;97.81
53758;BME280;39674;59.860;30.672;2023-02-18T20:06:34;98938.06;;;-4.45;97.40
53758;BME280;39674;59.860;30.672;2023-02-18T20:09:32;98928.56;;;-4.42;97.57
53758;BME280;39674;59.860;30.672;2023-02-18T20:12:05;98936.28;;;-4.42;97.62
53758;BME280;39674;59.860;30.672;2023-02-18T20:15:13;98928.63;;;-4.45;97.61
53758;BME280;39674;59.860;30.672;2023-02-18T20:18:04;98928.59;;;-4.43;97.63
53758;BME280;39674;59.860;30.672;2023-02-18T20:20:53;98931.19;;;-4.43;97.68
53758;BME280;39674;59.860;30.672;2023-02-18T20:23:59;98928.56;;;-4.42;97.51
53758;BME280;39674;59.860;30.672;2023-02-18T20:26:41;98926.94;;;-4.46;96.96
53758;BME280;39674;59.860;30.672;2023-02-18T20:29:26;98932.00;;;-4.43;97.19
53758;BME280;39674;59.860;30.672;2023-02-18T20:32:40;98921.78;;;-4.46;97.19
53758;BME280;39674;59.860;30.672;2023-02-18T20:35:58;98915.72;;;-4.43;97.09
53758;BME280;39674;59.860;30.672;2023-02-18T20:39:01;98913.19;;;-4.45;97.38
53758;BME280;39674;59.860;30.672;2023-02-18T20:41:49;98914.00;;;-4.44;98.02
53758;BME280;39674;59.860;30.672;2023-02-18T20:44:26;98920.91;;;-4.45;97.42
53758;BME280;39674;59.860;30.672;2023-02-18T20:47:22;98919.97;;;-4.41;98.52
53758;BME280;39674;59.860;30.672;2023-02-18T20:49:58;98917.66;;;-4.56;100.00
53758;BME280;39674;59.860;30.672;2023-02-18T20:52:52;98920.34;;;-4.62;100.00
53758;BME280;39674;59.860;30.672;2023-02-18T20:55:29;98911.75;;;-4.61;100.00
53758;BME280;39674;59.860;30.672;2023-02-18T20:58:08;98925.56;;;-4.65;100.00
53758;BME280;39674;59.860;30.672;2023-02-18T21:00:50;98915.38;;;-4.72;100.00
53758;BME280;39674;59.860;30.672;2023-02-18T21:06:23;98913.72;;;-4.74;100.00
53758;BME280;39674;59.860;30.672;2023-02-18T21:09:07;98913.91;;;-4.85;100.00
53758;BME280;39674;59.860;30.672;2023-02-18T21:20:33;98907.97;;;-4.89;100.00
53758;BME280;39674;59.860;30.672;2023-02-18T21:23:28;98907.16;;;-4.92;100.00
53758;BME280;39674;59.860;30.672;2023-02-18T21:26:03;98905.50;;;-4.95;100.00
53758;BME280;39674;59.860;30.672;2023-02-18T21:28:36;98903.84;;;-5.01;100.00
53758;BME280;39674;59.860;30.672;2023-02-18T21:31:14;98897.91;;;-5.04;100.00
53758;BME280;39674;59.860;30.672;2023-02-18T21:33:52;98897.00;;;-5.02;100.00
53758;BME280;39674;59.860;30.672;2023-02-18T21:36:37;98896.19;;;-5.04;100.00
53758;BME280;39674;59.860;30.672;2023-02-18T21:39:07;98897.03;;;-5.03;100.00
53758;BME280;39674;59.860;30.672;2023-02-18T21:41:49;98893.53;;;-4.97;100.00
53758;BME280;39674;59.860;30.672;2023-02-18T21:44:36;98891.97;;;-5.06;100.00
53758;BME280;39674;59.860;30.672;2023-02-18T21:47:10;98895.38;;;-5.06;100.00
53758;BME280;39674;59.860;30.672;2023-02-18T21:49:44;98892.03;;;-5.11;100.00
53758;BME280;39674;59.860;30.672;2023-02-18T21:52:20;98885.09;;;-5.09;100.00
53758;BME280;39674;59.860;30.672;2023-02-18T21:55:07;98885.06;;;-5.06;100.00
53758;BME280;39674;59.860;30.672;2023-02-18T21:57:46;98883.38;;;-5.07;100.00
53758;BME280;39674;59.860;30.672;2023-02-18T22:00:18;98892.03;;;-5.11;100.00
53758;BME280;39674;59.860;30.672;2023-02-18T22:02:50;98875.66;;;-5.07;100.00
53758;BME280;39674;59.860;30.672;2023-02-18T22:05:21;98879.09;;;-5.08;100.00
53758;BME280;39674;59.860;30.672;2023-02-18T22:08:04;98878.19;;;-5.04;100.00
53758;BME280;39674;59.860;30.672;2023-02-18T22:10:40;98879.94;;;-5.06;100.00
53758;BME280;39674;59.860;30.672;2023-02-18T22:13:12;98878.19;;;-5.05;100.00
53758;BME280;39674;59.860;30.672;2023-02-18T22:15:43;98879.06;;;-5.05;100.00
53758;BME280;39674;59.860;30.672;2023-02-18T22:18:52;98881.66;;;-5.08;100.00
53758;BME280;39674;59.860;30.672;2023-02-18T22:21:22;98885.97;;;-5.08;100.00
53758;BME280;39674;59.860;30.672;2023-02-18T22:24:02;98882.44;;;-5.01;100.00
53758;BME280;39674;59.860;30.672;2023-02-18T22:26:31;98873.03;;;-5.04;100.00
53758;BME280;39674;59.860;30.672;2023-02-18T22:29:18;98875.59;;;-5.05;100.00
53758;BME280;39674;59.860;30.672;2023-02-18T22:32:00;98877.34;;;-5.06;100.00
53758;BME280;39674;59.860;30.672;2023-02-18T22:34:36;98883.38;;;-5.07;100.00
53758;BME280;39674;59.860;30.672;2023-02-18T22:37:09;98870.38;;;-5.01;100.00
53758;BME280;39674;59.860;30.672;2023-02-18T22:39:56;98864.47;;;-5.06;100.00
53758;BME280;39674;59.860;30.672;2023-02-18T22:42:32;98864.47;;;-5.06;100.00
53758;BME280;39674;59.860;30.672;2023-02-18T22:45:14;98868.75;;;-5.05;100.00
53758;BME280;39674;59.860;30.672;2023-02-18T22:47:52;98877.38;;;-5.07;100.00
53758;BME280;39674;59.860;30.672;2023-02-18T22:50:55;98861.13;;;-5.11;100.00
53758;BME280;39674;59.860;30.672;2023-02-18T22:54:05;98864.47;;;-5.06;100.00
53758;BME280;39674;59.860;30.672;2023-02-18T22:56:59;98880.88;;;-5.11;100.00
53758;BME280;39674;59.860;30.672;2023-02-18T22:59:49;98864.63;;;-5.13;100.00
53758;BME280;39674;59.860;30.672;2023-02-18T23:02:47;98867.25;;;-5.18;100.00
53758;BME280;39674;59.860;30.672;2023-02-18T23:05:29;98866.44;;;-5.20;100.00
53758;BME280;39674;59.860;30.672;2023-02-18T23:07:59;98865.53;;;-5.16;100.00
53758;BME280;39674;59.860;30.672;2023-02-18T23:10:32;98863.75;;;-5.12;100.00
53758;BME280;39674;59.860;30.672;2023-02-18T23:13:10;98861.19;;;-5.14;100.00
53758;BME280;39674;59.860;30.672;2023-02-18T23:15:56;98861.19;;;-5.14;100.00
53758;BME280;39674;59.860;30.672;2023-02-18T23:18:27;98857.72;;;-5.13;100.00
53758;BME280;39674;59.860;30.672;2023-02-18T23:21:04;98851.75;;;-5.13;100.00
53758;BME280;39674;59.860;30.672;2023-02-18T23:24:09;98856.00;;;-5.11;100.00
53758;BME280;39674;59.860;30.672;2023-02-18T23:26:41;98844.94;;;-5.16;100.00
53758;BME280;39674;59.860;30.672;2023-02-18T23:32:18;98839.78;;;-5.16;100.00
53758;BME280;39674;59.860;30.672;2023-02-18T23:34:56;98833.69;;;-5.12;100.00
53758;BME280;39674;59.860;30.672;2023-02-18T23:37:33;98839.78;;;-5.18;100.00
53758;BME280;39674;59.860;30.672;2023-02-18T23:40:31;98845.81;;;-5.17;100.00
53758;BME280;39674;59.860;30.672;2023-02-18T23:43:12;98833.81;;;-5.18;100.00
53758;BME280;39674;59.860;30.672;2023-02-18T23:46:14;98840.66;;;-5.17;100.00
53758;BME280;39674;59.860;30.672;2023-02-18T23:52:22;98820.06;;;-5.17;100.00
53758;BME280;39674;59.860;30.672;2023-02-18T23:55:14;98820.00;;;-5.14;100.00
53758;BME280;39674;59.860;30.672;2023-02-18T23:58:04;98831.25;;;-5.21;100.00
